Time;durP1;ratioP1;P1;durP2;ratioP2;P2;SDS_P1;SDS_P2;PMS_P1;PMS_P2;Temp;Humidity;BMP_temperature;BMP_pressure;BME280_temperature;BME280_humidity;BME280_pressure;Samples;Min_cycle;Max_cycle;Signal;HPM_P1;HPM_P2
2022/03/11 00:00:11;;;;;;;;;;;;;;;-0.06;100.00;96120.94;1034099;28;19957;-69
2022/03/11 00:00:42;;;;;;;;;;;;;;;-0.10;100.00;96109.38;1033925;28;19953;-69
2022/03/11 00:01:12;;;;;;;;;;;;;;;-0.12;100.00;96125.03;1038825;28;20174;-71
2022/03/11 00:01:43;;;;;;;;;;;;;;;-0.11;100.00;96111.16;1042781;28;20362;-71
2022/03/11 00:02:13;;;;;;;;;;;;;;;-0.12;100.00;96119.09;1038522;28;19937;-70
2022/03/11 00:02:43;;;;;;;;;;;;;;;-0.11;100.00;96102.63;1034441;28;19913;-69
2022/03/11 00:03:14;;;;;;;;;;;;;;;-0.10;100.00;96106.78;1030660;28;19928;-71
2022/03/11 00:03:44;;;;;;;;;;;;;;;-0.09;100.00;96108.41;1026252;28;19922;-70
2022/03/11 00:04:14;;;;;;;;;;;;;;;-0.07;100.00;96114.16;1026534;28;20395;-71
2022/03/11 00:04:46;;;;;;;;;;;;;;;-0.09;100.00;96114.34;1030913;28;19910;-69
2022/03/11 00:05:16;;;;;;;;;;;;;;;-0.12;100.00;96122.47;1027379;28;20301;-71
2022/03/11 00:05:47;;;;;;;;;;;;;;;-0.14;100.00;96126.19;1026339;28;19910;-68
2022/03/11 00:06:17;;;;;;;;;;;;;;;-0.13;100.00;96122.66;1026575;28;20029;-69
2022/03/11 00:06:47;;;;;;;;;;;;;;;-0.13;100.00;96122.66;1034606;28;19913;-70
2022/03/11 00:07:18;;;;;;;;;;;;;;;-0.15;100.00;96114.28;1031131;28;19974;-71
2022/03/11 00:07:52;;;;;;;;;;;;;;;-0.16;100.00;96118.66;1026350;28;19921;-67
2022/03/11 00:08:22;;;;;;;;;;;;;;;-0.15;100.00;96124.59;1030401;28;20327;-70
2022/03/11 00:08:53;;;;;;;;;;;;;;;-0.14;100.00;96108.16;1034685;28;19922;-70
2022/03/11 00:09:23;;;;;;;;;;;;;;;-0.13;100.00;96123.44;1022561;28;20011;-70
2022/03/11 00:09:53;;;;;;;;;;;;;;;-0.11;100.00;96118.09;1022193;29;19938;-70
2022/03/11 00:10:24;;;;;;;;;;;;;;;-0.10;100.00;96117.91;1026069;28;19918;-69
2022/03/11 00:10:57;;;;;;;;;;;;;;;-0.10;100.00;96120.50;1022317;28;19914;-71
2022/03/11 00:11:27;;;;;;;;;;;;;;;-0.12;100.00;96124.25;1030811;28;20009;-70
2022/03/11 00:11:58;;;;;;;;;;;;;;;-0.15;100.00;96125.41;1026153;28;20311;-69
2022/03/11 00:12:28;;;;;;;;;;;;;;;-0.16;100.00;96123.03;1022415;29;19967;-69
2022/03/11 00:12:58;;;;;;;;;;;;;;;-0.17;100.00;96116.25;1030791;28;20165;-71
2022/03/11 00:13:29;;;;;;;;;;;;;;;-0.18;100.00;96119.81;1034426;28;20426;-68
2022/03/11 00:14:00;;;;;;;;;;;;;;;-0.21;100.00;96120.19;1026225;28;20394;-70
2022/03/11 00:14:31;;;;;;;;;;;;;;;-0.23;100.00;96117.81;1022612;29;19970;-70
2022/03/11 00:15:01;;;;;;;;;;;;;;;-0.27;100.00;96117.38;1022489;29;20168;-71
2022/03/11 00:15:31;;;;;;;;;;;;;;;-0.28;100.00;96115.75;1023982;28;19921;-70
2022/03/11 00:16:02;;;;;;;;;;;;;;;-0.30;100.00;96128.06;1036278;28;21244;-69
2022/03/11 00:16:32;;;;;;;;;;;;;;;-0.28;100.00;96115.75;1022456;28;19915;-71
2022/03/11 00:17:09;;;;;;;;;;;;;;;-0.28;100.00;96120.13;1030820;28;19917;-70
2022/03/11 00:17:39;;;;;;;;;;;;;;;-0.27;100.00;96122.53;1026327;28;20415;-70
2022/03/11 00:18:09;;;;;;;;;;;;;;;-0.31;100.00;96126.44;1029721;28;20013;-70
2022/03/11 00:18:40;;;;;;;;;;;;;;;-0.32;100.00;96124.84;1030769;28;19914;-70
2022/03/11 00:19:10;;;;;;;;;;;;;;;-0.32;100.00;96124.06;1022231;28;19938;-70
2022/03/11 00:19:40;;;;;;;;;;;;;;;-0.37;100.00;96127.22;1022733;28;19915;-71
2022/03/11 00:20:11;;;;;;;;;;;;;;;-0.42;100.00;96124.38;1026306;28;19953;-71
2022/03/11 00:20:41;;;;;;;;;;;;;;;-0.46;100.00;96125.72;1025651;28;20364;-70
2022/03/11 00:21:12;;;;;;;;;;;;;;;-0.47;100.00;96126.69;1020602;29;19915;-70
2022/03/11 00:21:42;;;;;;;;;;;;;;;-0.47;100.00;96126.69;1026486;28;19906;-72
2022/03/11 00:22:12;;;;;;;;;;;;;;;-0.48;100.00;96125.09;1034313;28;19920;-70
2022/03/11 00:22:43;;;;;;;;;;;;;;;-0.49;100.00;96128.66;1029820;28;19921;-70
2022/03/11 00:23:13;;;;;;;;;;;;;;;-0.44;100.00;96125.53;1026302;28;19950;-69
2022/03/11 00:23:43;;;;;;;;;;;;;;;-0.46;100.00;96124.94;1030786;28;19932;-71
2022/03/11 00:24:14;;;;;;;;;;;;;;;-0.47;100.00;96129.25;1026305;28;20053;-70
2022/03/11 00:24:44;;;;;;;;;;;;;;;-0.48;100.00;96127.66;1033451;28;19913;-71
2022/03/11 00:25:15;;;;;;;;;;;;;;;-0.49;100.00;96131.25;1034748;28;19977;-70
2022/03/11 00:25:45;;;;;;;;;;;;;;;-0.51;100.00;96130.63;1026518;28;20379;-72
2022/03/11 00:26:15;;;;;;;;;;;;;;;-0.53;100.00;96132.59;1033809;28;19913;-71
2022/03/11 00:26:46;;;;;;;;;;;;;;;-0.52;100.00;96129.03;1030621;28;19914;-71
2022/03/11 00:27:16;;;;;;;;;;;;;;;-0.54;100.00;96125.81;1018453;29;19915;-70
2022/03/11 00:27:46;;;;;;;;;;;;;;;-0.56;100.00;96125.22;1026588;28;19914;-73
2022/03/11 00:28:17;;;;;;;;;;;;;;;-0.59;100.00;96120.44;1034323;28;19910;-70
2022/03/11 00:28:47;;;;;;;;;;;;;;;-0.60;100.00;96136.88;1030494;28;19917;-69
2022/03/11 00:29:18;;;;;;;;;;;;;;;-0.58;100.00;96125.41;1026587;28;19941;-70
2022/03/11 00:29:49;;;;;;;;;;;;;;;-0.60;100.00;96122.22;1030194;28;19913;-67
2022/03/11 00:30:22;;;;;;;;;;;;;;;-0.61;100.00;96124.97;1029755;28;19920;-70
2022/03/11 00:30:52;;;;;;;;;;;;;;;-0.61;100.00;96120.59;1022421;29;19954;-70
2022/03/11 00:31:22;;;;;;;;;;;;;;;-0.58;100.00;96124.59;1032202;28;19914;-72
2022/03/11 00:31:53;;;;;;;;;;;;;;;-0.61;100.00;96123.19;1030694;28;19970;-72
2022/03/11 00:32:23;;;;;;;;;;;;;;;-0.62;100.00;96123.38;1030473;28;19914;-69
2022/03/11 00:32:53;;;;;;;;;;;;;;;-0.62;100.00;96124.16;1026449;28;19957;-69
2022/03/11 00:33:24;;;;;;;;;;;;;;;-0.63;100.00;96126.94;1034795;28;20393;-72
2022/03/11 00:33:55;;;;;;;;;;;;;;;-0.61;100.00;96114.66;1034438;28;19921;-69
2022/03/11 00:34:28;;;;;;;;;;;;;;;-0.63;100.00;96121.78;1026364;28;20291;-71
2022/03/11 00:34:58;;;;;;;;;;;;;;;-0.63;100.00;96116.63;1030121;28;20411;-70
2022/03/11 00:35:29;;;;;;;;;;;;;;;-0.65;100.00;96113.44;1022306;29;19911;-72
2022/03/11 00:35:59;;;;;;;;;;;;;;;-0.68;100.00;96124.09;1030786;28;19914;-70
2022/03/11 00:36:29;;;;;;;;;;;;;;;-0.67;100.00;96120.53;1028426;28;19918;-70
2022/03/11 00:37:00;;;;;;;;;;;;;;;-0.68;100.00;96124.09;1034529;28;20024;-69
2022/03/11 00:37:31;;;;;;;;;;;;;;;-0.70;100.00;96121.72;1038800;28;20383;-69
2022/03/11 00:38:01;;;;;;;;;;;;;;;-0.74;100.00;96128.19;1034688;28;19910;-70
2022/03/11 00:38:31;;;;;;;;;;;;;;;-0.70;100.00;96116.56;1034520;28;19909;-70
2022/03/11 00:39:01;;;;;;;;;;;;;;;-0.67;100.00;96117.97;1030766;28;19905;-70
2022/03/11 00:39:32;;;;;;;;;;;;;;;-0.67;100.00;96125.69;1030429;28;19942;-70
2022/03/11 00:40:02;;;;;;;;;;;;;;;-0.68;100.00;96119.75;1035349;28;19921;-70
2022/03/11 00:40:33;;;;;;;;;;;;;;;-0.72;100.00;96124.47;1035021;28;19912;-70
2022/03/11 00:41:03;;;;;;;;;;;;;;;-0.76;100.00;96130.97;1043517;28;19936;-70
2022/03/11 00:41:33;;;;;;;;;;;;;;;-0.75;100.00;96124.03;1042688;28;19917;-71
2022/03/11 00:42:04;;;;;;;;;;;;;;;-0.72;100.00;96121.09;1039572;28;19913;-70
2022/03/11 00:42:34;;;;;;;;;;;;;;;-0.76;100.00;96122.44;1039407;28;19913;-70
2022/03/11 00:43:04;;;;;;;;;;;;;;;-0.80;100.00;96122.00;1035403;28;19963;-72
2022/03/11 00:43:35;;;;;;;;;;;;;;;-0.83;100.00;96122.38;1035044;28;19983;-70
2022/03/11 00:44:05;;;;;;;;;;;;;;;-0.83;100.00;96121.56;1035377;28;20363;-71
2022/03/11 00:44:36;;;;;;;;;;;;;;;-0.85;100.00;96118.38;1035698;28;19913;-69
2022/03/11 00:45:07;;;;;;;;;;;;;;;-0.87;100.00;96128.88;1035211;28;19910;-70
2022/03/11 00:45:37;;;;;;;;;;;;;;;-0.90;100.00;96126.66;1035462;28;20294;-71
2022/03/11 00:46:07;;;;;;;;;;;;;;;-0.90;100.00;96126.66;1031425;28;19932;-71
2022/03/11 00:46:37;;;;;;;;;;;;;;;-0.87;100.00;96123.72;1031017;28;19921;-70
2022/03/11 00:47:09;;;;;;;;;;;;;;;-0.91;100.00;96125.03;1031625;28;19922;-70
2022/03/11 00:47:39;;;;;;;;;;;;;;;-0.90;100.00;96126.66;1035113;28;19921;-69
2022/03/11 00:48:09;;;;;;;;;;;;;;;-0.88;100.00;96124.69;1031099;28;20364;-70
2022/03/11 00:48:40;;;;;;;;;;;;;;;-0.92;100.00;96123.44;1031658;28;19956;-70
2022/03/11 00:49:10;;;;;;;;;;;;;;;-0.91;100.00;96114.72;1035273;28;19917;-70
2022/03/11 00:49:40;;;;;;;;;;;;;;;-0.86;100.00;96120.16;1039530;28;20378;-71
2022/03/11 00:50:12;;;;;;;;;;;;;;;-0.87;100.00;96126.28;1042088;28;19913;-69
2022/03/11 00:50:42;;;;;;;;;;;;;;;-0.89;100.00;96117.94;1038573;28;20406;-70
2022/03/11 00:51:13;;;;;;;;;;;;;;;-0.93;100.00;96121.06;1035772;28;19914;-70
2022/03/11 00:51:46;;;;;;;;;;;;;;;-0.92;100.00;96118.28;1026909;28;20016;-70
2022/03/11 00:52:16;;;;;;;;;;;;;;;-0.95;100.00;96114.28;1023672;28;19910;-67
2022/03/11 00:52:46;;;;;;;;;;;;;;;-0.96;100.00;96125.59;1027700;28;19933;-70
2022/03/11 00:53:16;;;;;;;;;;;;;;;-0.97;100.00;96115.47;1027818;28;20274;-70
2022/03/11 00:53:47;;;;;;;;;;;;;;;-0.93;100.00;96113.34;1031538;28;19910;-69
2022/03/11 00:54:17;;;;;;;;;;;;;;;-0.94;100.00;96120.25;1030153;28;19918;-70
2022/03/11 00:54:47;;;;;;;;;;;;;;;-0.96;100.00;96119.66;1027481;28;19914;-72
2022/03/11 00:55:18;;;;;;;;;;;;;;;-0.99;100.00;96115.66;1034344;28;20322;-71
2022/03/11 00:55:48;;;;;;;;;;;;;;;-0.99;100.00;96122.56;1031096;28;20013;-69
2022/03/11 00:56:19;;;;;;;;;;;;;;;-0.98;100.00;96113.84;1027329;28;19922;-69
2022/03/11 00:56:49;;;;;;;;;;;;;;;-1.02;100.00;96117.78;1028707;28;19963;-70
2022/03/11 00:57:19;;;;;;;;;;;;;;;-1.05;100.00;96110.41;1022503;28;19926;-70
2022/03/11 00:57:50;;;;;;;;;;;;;;;-1.02;100.00;96122.94;1023229;29;19977;-71
2022/03/11 00:58:20;;;;;;;;;;;;;;;-1.08;100.00;96110.78;1035164;28;19961;-69
2022/03/11 00:58:50;;;;;;;;;;;;;;;-1.09;100.00;96119.47;1035163;28;19963;-70
2022/03/11 00:59:21;;;;;;;;;;;;;;;-1.13;100.00;96119.06;1039766;28;19948;-70
2022/03/11 00:59:54;;;;;;;;;;;;;;;-1.15;100.00;96118.41;1034938;28;19909;-70
2022/03/11 01:00:24;;;;;;;;;;;;;;;-1.16;100.00;96121.19;1027087;28;19914;-70
2022/03/11 01:00:57;;;;;;;;;;;;;;;-1.19;100.00;96115.41;1031320;28;19949;-71
2022/03/11 01:01:28;;;;;;;;;;;;;;;-1.36;100.00;96096.00;1031030;28;20340;-72
2022/03/11 01:01:58;;;;;;;;;;;;;;;-1.18;100.00;96121.34;1027024;28;19914;-70
2022/03/11 01:02:32;;;;;;;;;;;;;;;-1.20;100.00;96116.41;1025581;28;19914;-69
2022/03/11 01:03:02;;;;;;;;;;;;;;;-1.21;100.00;96119.94;1027535;28;19910;-71
2022/03/11 01:03:35;;;;;;;;;;;;;;;-1.22;100.00;96122.69;1035515;28;19971;-70
2022/03/11 01:04:06;;;;;;;;;;;;;;;-1.25;100.00;96123.84;1043206;28;20377;-71
2022/03/11 01:04:36;;;;;;;;;;;;;;;-1.27;100.00;96120.66;1039229;28;19921;-70
2022/03/11 01:05:10;;;;;;;;;;;;;;;-1.27;100.00;96119.88;1027475;28;19997;-70
2022/03/11 01:05:41;;;;;;;;;;;;;;;-1.27;100.00;96115.50;1027347;28;19914;-70
2022/03/11 01:06:11;;;;;;;;;;;;;;;-1.21;100.00;96125.09;1030882;28;19914;-70
2022/03/11 01:06:41;;;;;;;;;;;;;;;-1.24;100.00;96125.47;1036125;28;20311;-70
2022/03/11 01:07:11;;;;;;;;;;;;;;;-1.20;100.00;96118.97;1040655;28;19913;-71
2022/03/11 01:07:42;;;;;;;;;;;;;;;-1.22;100.00;96120.91;1040233;28;19917;-71
2022/03/11 01:08:12;;;;;;;;;;;;;;;-1.19;100.00;96124.91;1036998;28;19910;-70
2022/03/11 01:08:42;;;;;;;;;;;;;;;-1.21;100.00;96117.38;1035496;28;19910;-73
2022/03/11 01:09:13;;;;;;;;;;;;;;;-1.23;100.00;96119.31;1039906;28;20226;-72
2022/03/11 01:09:43;;;;;;;;;;;;;;;-1.23;100.00;96123.69;1040704;28;19939;-73
2022/03/11 01:10:13;;;;;;;;;;;;;;;-1.26;100.00;96122.25;1044139;28;19905;-71
2022/03/11 01:10:44;;;;;;;;;;;;;;;-1.27;100.00;96122.44;1047718;28;19924;-74
2022/03/11 01:11:14;;;;;;;;;;;;;;;-1.28;100.00;96128.53;1048888;28;19908;-71
2022/03/11 01:11:45;;;;;;;;;;;;;;;-1.29;100.00;96121.81;1048471;28;19919;-73
2022/03/11 01:12:15;;;;;;;;;;;;;;;-1.28;100.00;96124.19;1048552;28;19908;-73
2022/03/11 01:12:46;;;;;;;;;;;;;;;-1.30;100.00;96115.88;1046766;28;19913;-73
2022/03/11 01:13:17;;;;;;;;;;;;;;;-1.31;100.00;96116.84;1041602;28;19924;-72
2022/03/11 01:13:49;;;;;;;;;;;;;;;-1.33;100.00;96121.38;1039853;28;19943;-71
2022/03/11 01:14:20;;;;;;;;;;;;;;;-1.56;100.00;96082.06;1039566;28;19964;-70
2022/03/11 01:14:50;;;;;;;;;;;;;;;-1.31;100.00;96121.19;1035053;28;20008;-71
2022/03/11 01:15:20;;;;;;;;;;;;;;;-1.32;100.00;96115.25;1036078;28;20047;-70
2022/03/11 01:15:51;;;;;;;;;;;;;;;-1.35;100.00;96118.16;1031379;28;19906;-70
2022/03/11 01:16:23;;;;;;;;;;;;;;;-1.34;100.00;96118.97;1035669;28;20326;-72
2022/03/11 01:16:53;;;;;;;;;;;;;;;-1.30;100.00;96121.00;1039089;28;19939;-70
2022/03/11 01:17:23;;;;;;;;;;;;;;;-1.35;100.00;96122.53;1038339;28;19971;-70
2022/03/11 01:17:54;;;;;;;;;;;;;;;-1.40;100.00;96115.34;1035350;28;19910;-70
2022/03/11 01:18:24;;;;;;;;;;;;;;;-1.36;100.00;96119.16;1035725;28;19914;-70
2022/03/11 01:18:54;;;;;;;;;;;;;;;-1.42;100.00;96117.28;1035052;28;19921;-72
2022/03/11 01:19:24;;;;;;;;;;;;;;;-1.43;100.00;96113.13;1035361;28;20063;-70
2022/03/11 01:19:55;;;;;;;;;;;;;;;-1.47;100.00;96115.25;1027280;28;19921;-70
2022/03/11 01:20:25;;;;;;;;;;;;;;;-1.48;100.00;96112.84;1026716;28;19968;-71
2022/03/11 01:20:56;;;;;;;;;;;;;;;-1.49;100.00;96111.25;1030996;28;19920;-70
2022/03/11 01:21:26;;;;;;;;;;;;;;;-1.53;100.00;96110.03;1027366;28;19914;-71
2022/03/11 01:21:59;;;;;;;;;;;;;;;-1.52;100.00;96116.75;1027137;28;19957;-71
2022/03/11 01:22:30;;;;;;;;;;;;;;;-1.50;100.00;96104.53;1027464;28;19914;-71
2022/03/11 01:23:00;;;;;;;;;;;;;;;-1.50;100.00;96110.47;1031690;28;20716;-71
2022/03/11 01:23:30;;;;;;;;;;;;;;;-1.49;100.00;96116.41;1039481;28;19966;-69
2022/03/11 01:24:01;;;;;;;;;;;;;;;-1.47;100.00;96109.31;1043781;28;20290;-71
2022/03/11 01:24:32;;;;;;;;;;;;;;;-1.46;100.00;96111.69;1042070;28;19916;-67
2022/03/11 01:25:03;;;;;;;;;;;;;;;-1.46;100.00;96105.75;1035047;28;20000;-71
2022/03/11 01:25:33;;;;;;;;;;;;;;;-1.49;100.00;96111.25;1039366;28;20430;-70
2022/03/11 01:26:03;;;;;;;;;;;;;;;-1.48;100.00;96111.06;1028254;28;19907;-69
2022/03/11 01:26:34;;;;;;;;;;;;;;;-1.46;100.00;96110.91;1033473;28;19906;-70
2022/03/11 01:27:04;;;;;;;;;;;;;;;-1.51;100.00;96113.19;1031019;28;19918;-70
2022/03/11 01:27:36;;;;;;;;;;;;;;;-1.54;100.00;96110.97;1027250;28;20665;-72
2022/03/11 01:28:07;;;;;;;;;;;;;;;-1.55;100.00;96104.25;1038451;28;19909;-70
2022/03/11 01:28:41;;;;;;;;;;;;;;;-1.58;100.00;96112.31;1039110;28;19987;-70
2022/03/11 01:29:11;;;;;;;;;;;;;;;-1.59;100.00;96108.16;1039189;28;19956;-71
2022/03/11 01:29:42;;;;;;;;;;;;;;;-1.60;100.00;96106.56;1035123;28;19956;-69
2022/03/11 01:30:13;;;;;;;;;;;;;;;-1.59;100.00;96100.44;1035656;28;20294;-70
2022/03/11 01:30:44;;;;;;;;;;;;;;;-1.51;100.00;96108.03;1034867;28;20317;-70
2022/03/11 01:31:14;;;;;;;;;;;;;;;-1.54;100.00;96100.69;1035081;28;19916;-70
2022/03/11 01:31:44;;;;;;;;;;;;;;;-1.52;100.00;96109.81;1039413;28;19920;-69
2022/03/11 01:32:17;;;;;;;;;;;;;;;-1.52;100.00;96111.59;1043767;28;19913;-70
2022/03/11 01:32:48;;;;;;;;;;;;;;;-1.54;100.00;96110.97;1043305;28;20053;-70
2022/03/11 01:33:18;;;;;;;;;;;;;;;-1.54;100.00;96104.09;1039082;28;20460;-70
2022/03/11 01:33:48;;;;;;;;;;;;;;;-1.55;100.00;96102.47;1035069;28;19914;-68
2022/03/11 01:34:19;;;;;;;;;;;;;;;-1.57;100.00;96108.78;1025826;28;19918;-69
2022/03/11 01:34:49;;;;;;;;;;;;;;;-1.60;100.00;96109.94;1026290;28;19910;-68
2022/03/11 01:35:19;;;;;;;;;;;;;;;-1.60;99.44;96106.56;1029257;28;20339;-71
2022/03/11 01:35:50;;;;;;;;;;;;;;;-1.60;99.17;96107.34;1027444;28;19934;-69
2022/03/11 01:36:21;;;;;;;;;;;;;;;-1.57;97.94;96108.78;1029888;28;19985;-70
2022/03/11 01:36:51;;;;;;;;;;;;;;;-1.58;97.04;96102.03;1039053;28;19909;-72
2022/03/11 01:37:21;;;;;;;;;;;;;;;-1.60;96.36;96107.34;1043466;28;19959;-71
2022/03/11 01:37:51;;;;;;;;;;;;;;;-1.54;96.84;96110.97;1043463;28;19912;-71
2022/03/11 01:38:22;;;;;;;;;;;;;;;-1.56;95.77;96105.22;1041257;28;19978;-70
2022/03/11 01:38:54;;;;;;;;;;;;;;;-1.57;95.62;96113.94;1043596;28;19989;-71
2022/03/11 01:39:24;;;;;;;;;;;;;;;-1.60;95.36;96109.13;1039108;28;19913;-70
2022/03/11 01:39:54;;;;;;;;;;;;;;;-1.60;95.40;96106.56;1036492;28;20362;-70
2022/03/11 01:40:25;;;;;;;;;;;;;;;-1.57;95.04;96103.63;1034685;28;19943;-69
2022/03/11 01:40:55;;;;;;;;;;;;;;;-1.60;95.15;96104.78;1026876;28;19914;-73
2022/03/11 01:41:25;;;;;;;;;;;;;;;-1.60;95.95;96104.00;1024315;28;19911;-71
2022/03/11 01:41:56;;;;;;;;;;;;;;;-1.62;95.33;96105.94;1023280;28;19915;-70
2022/03/11 01:42:26;;;;;;;;;;;;;;;-1.62;94.49;96104.16;1033714;28;19914;-70
2022/03/11 01:42:56;;;;;;;;;;;;;;;-1.60;93.74;96102.22;1039524;28;19906;-69
2022/03/11 01:43:28;;;;;;;;;;;;;;;-1.59;94.06;96113.28;1037947;28;19909;-70
2022/03/11 01:44:06;;;;;;;;;;;;;;;-1.62;93.10;96105.94;1042985;28;19967;-70
2022/03/11 01:44:36;;;;;;;;;;;;;;;-1.65;93.70;96107.06;1031472;28;19910;-71
2022/03/11 01:45:07;;;;;;;;;;;;;;;-1.64;93.61;96110.44;1035877;28;19913;-71
2022/03/11 01:45:37;;;;;;;;;;;;;;;-1.66;93.44;96111.41;1043522;28;19923;-73
2022/03/11 01:46:07;;;;;;;;;;;;;;;-1.69;93.33;96116.91;1039390;28;19913;-71
2022/03/11 01:46:38;;;;;;;;;;;;;;;-1.70;93.55;96115.31;1042528;28;20310;-71
2022/03/11 01:47:08;;;;;;;;;;;;;;;-1.69;93.34;96111.78;1039418;28;19913;-71
2022/03/11 01:47:38;;;;;;;;;;;;;;;-1.68;93.08;96110.00;1035127;28;19909;-70
2022/03/11 01:48:10;;;;;;;;;;;;;;;-1.74;92.92;96111.53;1030794;28;20028;-69
2022/03/11 01:48:40;;;;;;;;;;;;;;;-1.75;92.58;96112.47;1031417;28;19910;-69
2022/03/11 01:49:11;;;;;;;;;;;;;;;-1.72;92.35;96112.13;1031084;28;19913;-69
2022/03/11 01:49:41;;;;;;;;;;;;;;;-1.70;92.63;96105.03;1033343;28;19918;-69
2022/03/11 01:50:11;;;;;;;;;;;;;;;-1.73;92.37;96109.75;1034917;28;19918;-70
2022/03/11 01:50:42;;;;;;;;;;;;;;;-1.73;92.79;96109.75;1030528;28;19910;-70
2022/03/11 01:51:12;;;;;;;;;;;;;;;-1.76;92.11;96110.09;1035262;28;19952;-70
2022/03/11 01:51:42;;;;;;;;;;;;;;;-1.75;92.01;96109.09;1034496;28;19924;-69
2022/03/11 01:52:13;;;;;;;;;;;;;;;-1.76;91.71;96104.94;1034890;28;20589;-70
2022/03/11 01:52:43;;;;;;;;;;;;;;;-1.78;91.10;96102.53;1039511;28;20389;-69
2022/03/11 01:53:13;;;;;;;;;;;;;;;-1.74;90.60;96103.00;1042722;28;20534;-70
2022/03/11 01:53:44;;;;;;;;;;;;;;;-1.72;89.72;96101.03;1038953;28;19913;-71
2022/03/11 01:54:14;;;;;;;;;;;;;;;-1.73;89.59;96100.25;1039129;28;19913;-70
2022/03/11 01:54:47;;;;;;;;;;;;;;;-1.72;89.40;96096.69;1035104;28;19916;-70
2022/03/11 01:55:18;;;;;;;;;;;;;;;-1.71;88.40;96093.16;1037038;28;19916;-70
2022/03/11 01:55:48;;;;;;;;;;;;;;;-1.74;88.96;96103.81;1038779;28;19932;-69
2022/03/11 01:56:18;;;;;;;;;;;;;;;-1.73;88.56;96105.38;1038780;28;20601;-69
2022/03/11 01:56:48;;;;;;;;;;;;;;;-1.74;88.25;96103.81;1040072;28;19955;-69
2022/03/11 01:57:19;;;;;;;;;;;;;;;-1.77;88.46;96101.59;1033901;28;20548;-70
2022/03/11 01:57:49;;;;;;;;;;;;;;;-1.78;88.85;96097.38;1035695;28;19914;-69
2022/03/11 01:58:20;;;;;;;;;;;;;;;-1.76;88.35;96104.94;1035113;28;19913;-70
2022/03/11 01:58:51;;;;;;;;;;;;;;;-1.80;88.11;96101.94;1035597;28;19928;-69
2022/03/11 01:59:21;;;;;;;;;;;;;;;-1.78;87.93;96097.38;1036024;28;20044;-70
2022/03/11 01:59:51;;;;;;;;;;;;;;;-1.78;88.11;96104.31;1031803;28;19910;-70
2022/03/11 02:00:22;;;;;;;;;;;;;;;-1.77;87.23;96104.16;1033089;28;20427;-71
2022/03/11 02:00:52;;;;;;;;;;;;;;;-1.80;88.39;96104.50;1031959;28;19910;-69
2022/03/11 02:01:23;;;;;;;;;;;;;;;-1.80;88.57;96096.00;1032020;28;19985;-69
2022/03/11 02:01:53;;;;;;;;;;;;;;;-1.80;87.87;96101.94;1035183;28;19916;-69
2022/03/11 02:02:23;;;;;;;;;;;;;;;-1.83;88.21;96096.34;1034479;28;20390;-69
2022/03/11 02:02:53;;;;;;;;;;;;;;;-1.86;89.13;96105.19;1031808;28;19978;-70
2022/03/11 02:03:24;;;;;;;;;;;;;;;-1.87;88.68;96103.59;1036037;28;19923;-70
2022/03/11 02:03:57;;;;;;;;;;;;;;;-1.87;88.30;96097.69;1035755;28;19972;-69
2022/03/11 02:04:27;;;;;;;;;;;;;;;-1.89;88.67;96100.41;1031731;28;19964;-70
2022/03/11 02:04:57;;;;;;;;;;;;;;;-1.92;89.18;96103.31;1032267;28;20390;-70
2022/03/11 02:05:28;;;;;;;;;;;;;;;-1.95;89.24;96098.53;1031764;28;19922;-70
2022/03/11 02:06:02;;;;;;;;;;;;;;;-2.15;88.92;96070.78;1032347;28;19918;-69
2022/03/11 02:06:32;;;;;;;;;;;;;;;-1.94;89.52;96102.72;1048475;28;20381;-68
2022/03/11 02:07:04;;;;;;;;;;;;;;;-1.95;89.70;96101.09;1044027;28;19912;-70
2022/03/11 02:07:35;;;;;;;;;;;;;;;-1.96;89.67;96100.31;1040230;28;19913;-70
2022/03/11 02:08:05;;;;;;;;;;;;;;;-1.99;90.30;96098.09;1035623;28;19913;-70
2022/03/11 02:08:35;;;;;;;;;;;;;;;-2.01;89.77;96096.66;1031607;28;20469;-69
2022/03/11 02:09:06;;;;;;;;;;;;;;;-2.03;91.31;96096.03;1036611;28;20012;-69
2022/03/11 02:09:36;;;;;;;;;;;;;;;-2.03;91.20;96094.25;1044135;28;20356;-70
2022/03/11 02:10:10;;;;;;;;;;;;;;;-2.03;90.83;96093.47;1044145;28;20397;-70
2022/03/11 02:10:40;;;;;;;;;;;;;;;-2.03;91.25;96093.47;1038832;28;19974;-72
2022/03/11 02:11:11;;;;;;;;;;;;;;;-2.02;90.94;96095.84;1039995;28;19971;-70
2022/03/11 02:11:41;;;;;;;;;;;;;;;-2.05;91.01;96090.28;1031960;28;20322;-69
2022/03/11 02:12:11;;;;;;;;;;;;;;;-2.05;90.13;96090.28;1031670;28;19960;-67
2022/03/11 02:12:42;;;;;;;;;;;;;;;-2.04;90.53;96089.31;1031698;28;19914;-69
2022/03/11 02:13:13;;;;;;;;;;;;;;;-2.06;90.81;96092.03;1032105;28;19913;-70
2022/03/11 02:13:43;;;;;;;;;;;;;;;-2.08;90.92;96090.63;1035857;28;19925;-69
2022/03/11 02:14:14;;;;;;;;;;;;;;;-2.06;90.53;96091.25;1035856;28;20334;-69
2022/03/11 02:14:44;;;;;;;;;;;;;;;-2.07;91.29;96085.31;1040359;28;19917;-70
2022/03/11 02:15:15;;;;;;;;;;;;;;;-2.08;91.11;96088.03;1043998;28;19924;-70
2022/03/11 02:15:45;;;;;;;;;;;;;;;-2.11;92.13;96085.81;1048297;28;19920;-70
2022/03/11 02:16:16;;;;;;;;;;;;;;;-2.11;92.02;96086.66;1048114;28;19919;-69
2022/03/11 02:16:47;;;;;;;;;;;;;;;-2.11;92.57;96089.22;1044460;28;19928;-69
2022/03/11 02:17:17;;;;;;;;;;;;;;;-2.14;92.16;96084.41;1038997;28;19918;-70
2022/03/11 02:17:47;;;;;;;;;;;;;;;-2.16;92.03;96088.91;1044150;28;19917;-71
2022/03/11 02:18:17;;;;;;;;;;;;;;;-2.18;92.45;96090.84;1041570;28;20194;-69
2022/03/11 02:18:48;;;;;;;;;;;;;;;-2.17;92.27;96088.13;1043204;28;20371;-70
2022/03/11 02:19:18;;;;;;;;;;;;;;;-2.18;93.70;96089.09;1040958;28;19921;-70
2022/03/11 02:19:49;;;;;;;;;;;;;;;-2.19;93.65;96090.06;1036105;28;19921;-70
2022/03/11 02:20:19;;;;;;;;;;;;;;;-2.19;93.65;96086.69;1035241;28;20330;-69
2022/03/11 02:20:52;;;;;;;;;;;;;;;-2.21;94.02;96086.88;1031697;28;19930;-70
2022/03/11 02:21:23;;;;;;;;;;;;;;;-2.21;94.37;96091.22;1032329;28;19921;-70
2022/03/11 02:21:53;;;;;;;;;;;;;;;-2.23;94.33;96088.81;1035398;28;19925;-70
2022/03/11 02:22:24;;;;;;;;;;;;;;;-2.20;94.37;96091.03;1028263;28;19915;-70
2022/03/11 02:22:57;;;;;;;;;;;;;;;-2.20;94.17;96092.81;1033959;28;19918;-69
2022/03/11 02:23:28;;;;;;;;;;;;;;;-2.23;94.13;96093.16;1040320;28;19913;-69
2022/03/11 02:23:58;;;;;;;;;;;;;;;-2.22;93.49;96095.53;1040658;28;19949;-70
2022/03/11 02:24:30;;;;;;;;;;;;;;;-2.25;95.27;96093.31;1039817;28;19917;-69
2022/03/11 02:25:01;;;;;;;;;;;;;;;-2.29;95.60;96089.50;1039305;28;19928;-70
2022/03/11 02:25:31;;;;;;;;;;;;;;;-2.30;94.72;96100.75;1036119;28;19920;-69
2022/03/11 02:26:01;;;;;;;;;;;;;;;-2.30;95.04;96099.97;1031996;28;20485;-69
2022/03/11 02:26:31;;;;;;;;;;;;;;;-2.27;93.87;96097.84;1031593;28;19929;-69
2022/03/11 02:27:02;;;;;;;;;;;;;;;-2.31;95.38;96091.47;1024190;28;19936;-68
2022/03/11 02:27:38;;;;;;;;;;;;;;;-2.29;95.64;96099.78;1027567;28;19922;-69
2022/03/11 02:28:08;;;;;;;;;;;;;;;-2.28;94.93;96096.25;1032860;28;20008;-70
2022/03/11 02:28:39;;;;;;;;;;;;;;;-2.27;95.20;96097.84;1031971;28;19914;-69
2022/03/11 02:29:09;;;;;;;;;;;;;;;-2.30;95.79;96098.19;1028675;28;19919;-69
2022/03/11 02:29:39;;;;;;;;;;;;;;;-2.32;95.68;96099.34;1030136;28;19957;-69
2022/03/11 02:30:16;;;;;;;;;;;;;;;-2.36;95.81;96096.31;1027857;28;19922;-69
2022/03/11 02:30:47;;;;;;;;;;;;;;;-2.34;96.23;96096.94;1027916;28;19922;-70
2022/03/11 02:31:18;;;;;;;;;;;;;;;-2.36;96.72;96098.88;1028577;28;19973;-69
2022/03/11 02:31:48;;;;;;;;;;;;;;;-2.37;96.86;96099.88;1035653;28;19971;-67
2022/03/11 02:32:18;;;;;;;;;;;;;;;-2.39;97.88;96094.09;1036609;28;20437;-71
2022/03/11 02:32:49;;;;;;;;;;;;;;;-2.40;97.63;96090.72;1039940;28;19921;-69
2022/03/11 02:33:19;;;;;;;;;;;;;;;-2.40;97.65;96100.22;1043806;28;19928;-69
2022/03/11 02:33:49;;;;;;;;;;;;;;;-2.41;98.49;96101.97;1040136;28;19925;-70
2022/03/11 02:34:22;;;;;;;;;;;;;;;-2.43;100.00;96103.13;1039792;28;19952;-70
2022/03/11 02:34:53;;;;;;;;;;;;;;;-2.45;98.88;96099.91;1036045;28;20336;-70
2022/03/11 02:35:23;;;;;;;;;;;;;;;-2.47;99.04;96096.72;1035861;28;19971;-69
2022/03/11 02:35:53;;;;;;;;;;;;;;;-2.48;99.08;96095.09;1035174;28;19921;-69
2022/03/11 02:36:24;;;;;;;;;;;;;;;-2.47;98.71;96097.53;1036155;28;20306;-70
2022/03/11 02:36:54;;;;;;;;;;;;;;;-2.44;100.00;96094.63;1044015;28;19917;-66
2022/03/11 02:37:26;;;;;;;;;;;;;;;-2.44;100.00;96092.03;1044105;28;19990;-69
2022/03/11 02:37:56;;;;;;;;;;;;;;;-2.45;99.87;96097.34;1040058;28;20673;-68
2022/03/11 02:38:26;;;;;;;;;;;;;;;-2.48;99.52;96095.09;1043707;28;19913;-70